sensor_id;sensor_type;location;lat;lon;timestamp;P1;durP1;ratioP1;P2;durP2;ratioP2
51907;SDS011;39320;53.214;6.556;2023-09-07T00:01:29;1.83;;;1.17;;
51907;SDS011;39320;53.214;6.556;2023-09-07T00:03:55;2.13;;;1.20;;
51907;SDS011;39320;53.214;6.556;2023-09-07T00:06:21;1.75;;;1.23;;
51907;SDS011;39320;53.214;6.556;2023-09-07T00:08:47;1.52;;;1.02;;
51907;SDS011;39320;53.214;6.556;2023-09-07T00:11:12;2.25;;;1.30;;
51907;SDS011;39320;53.214;6.556;2023-09-07T00:13:38;2.42;;;1.25;;
51907;SDS011;39320;53.214;6.556;2023-09-07T00:16:04;1.30;;;1.00;;
51907;SDS011;39320;53.214;6.556;2023-09-07T00:18:31;1.40;;;1.20;;
51907;SDS011;39320;53.214;6.556;2023-09-07T00:20:58;1.98;;;1.10;;
51907;SDS011;39320;53.214;6.556;2023-09-07T00:23:24;4.78;;;1.30;;
51907;SDS011;39320;53.214;6.556;2023-09-07T00:25:49;3.65;;;1.33;;
51907;SDS011;39320;53.214;6.556;2023-09-07T00:28:15;2.80;;;1.23;;
51907;SDS011;39320;53.214;6.556;2023-09-07T00:30:41;2.22;;;0.95;;
51907;SDS011;39320;53.214;6.556;2023-09-07T00:33:07;1.83;;;0.90;;
51907;SDS011;39320;53.214;6.556;2023-09-07T00:35:33;1.83;;;1.05;;
51907;SDS011;39320;53.214;6.556;2023-09-07T00:37:59;2.08;;;1.00;;
51907;SDS011;39320;53.214;6.556;2023-09-07T00:40:25;2.28;;;1.40;;
51907;SDS011;39320;53.214;6.556;2023-09-07T00:42:51;2.28;;;1.17;;
51907;SDS011;39320;53.214;6.556;2023-09-07T00:45:18;2.55;;;1.30;;
51907;SDS011;39320;53.214;6.556;2023-09-07T00:47:44;1.98;;;1.25;;
51907;SDS011;39320;53.214;6.556;2023-09-07T00:50:10;2.70;;;1.50;;
51907;SDS011;39320;53.214;6.556;2023-09-07T00:52:39;2.20;;;1.40;;
51907;SDS011;39320;53.214;6.556;2023-09-07T00:55:08;2.47;;;1.60;;
51907;SDS011;39320;53.214;6.556;2023-09-07T00:57:34;3.95;;;1.23;;
51907;SDS011;39320;53.214;6.556;2023-09-07T01:00:02;2.58;;;1.30;;
51907;SDS011;39320;53.214;6.556;2023-09-07T01:02:31;3.25;;;1.05;;
51907;SDS011;39320;53.214;6.556;2023-09-07T01:04:56;1.73;;;1.20;;
51907;SDS011;39320;53.214;6.556;2023-09-07T01:07:57;2.85;;;1.33;;
51907;SDS011;39320;53.214;6.556;2023-09-07T01:10:28;2.72;;;1.02;;
51907;SDS011;39320;53.214;6.556;2023-09-07T01:12:53;2.17;;;1.20;;
51907;SDS011;39320;53.214;6.556;2023-09-07T01:15:19;3.58;;;1.60;;
51907;SDS011;39320;53.214;6.556;2023-09-07T01:17:45;4.10;;;1.70;;
51907;SDS011;39320;53.214;6.556;2023-09-07T01:20:11;1.95;;;1.50;;
51907;SDS011;39320;53.214;6.556;2023-09-07T01:22:38;2.28;;;1.27;;
51907;SDS011;39320;53.214;6.556;2023-09-07T01:25:05;2.28;;;1.58;;
51907;SDS011;39320;53.214;6.556;2023-09-07T01:27:32;2.38;;;1.25;;
51907;SDS011;39320;53.214;6.556;2023-09-07T01:29:59;2.40;;;1.48;;
51907;SDS011;39320;53.214;6.556;2023-09-07T01:32:24;1.95;;;1.13;;
51907;SDS011;39320;53.214;6.556;2023-09-07T01:34:52;2.28;;;1.40;;
51907;SDS011;39320;53.214;6.556;2023-09-07T01:37:21;2.08;;;1.70;;
51907;SDS011;39320;53.214;6.556;2023-09-07T01:39:47;2.63;;;1.73;;
51907;SDS011;39320;53.214;6.556;2023-09-07T01:42:14;3.15;;;1.58;;
51907;SDS011;39320;53.214;6.556;2023-09-07T01:44:39;1.75;;;1.40;;
51907;SDS011;39320;53.214;6.556;2023-09-07T01:47:05;2.33;;;1.20;;
51907;SDS011;39320;53.214;6.556;2023-09-07T01:49:31;3.15;;;1.60;;
51907;SDS011;39320;53.214;6.556;2023-09-07T01:51:57;2.63;;;1.48;;
51907;SDS011;39320;53.214;6.556;2023-09-07T01:54:22;2.40;;;1.27;;
51907;SDS011;39320;53.214;6.556;2023-09-07T01:56:48;2.17;;;1.65;;
51907;SDS011;39320;53.214;6.556;2023-09-07T01:59:14;1.77;;;1.50;;
51907;SDS011;39320;53.214;6.556;2023-09-07T02:01:39;3.08;;;1.35;;
51907;SDS011;39320;53.214;6.556;2023-09-07T02:04:05;2.95;;;1.85;;
51907;SDS011;39320;53.214;6.556;2023-09-07T02:06:31;3.17;;;2.10;;
51907;SDS011;39320;53.214;6.556;2023-09-07T02:08:57;5.82;;;1.80;;
51907;SDS011;39320;53.214;6.556;2023-09-07T02:11:23;2.17;;;1.52;;
51907;SDS011;39320;53.214;6.556;2023-09-07T02:13:49;1.92;;;1.50;;
51907;SDS011;39320;53.214;6.556;2023-09-07T02:16:14;2.65;;;1.30;;
51907;SDS011;39320;53.214;6.556;2023-09-07T02:18:41;2.63;;;1.52;;
51907;SDS011;39320;53.214;6.556;2023-09-07T02:21:11;2.72;;;1.65;;
51907;SDS011;39320;53.214;6.556;2023-09-07T02:23:36;2.42;;;1.42;;
51907;SDS011;39320;53.214;6.556;2023-09-07T02:26:02;2.60;;;1.52;;
51907;SDS011;39320;53.214;6.556;2023-09-07T02:28:29;2.25;;;1.60;;
51907;SDS011;39320;53.214;6.556;2023-09-07T02:31:01;2.53;;;1.75;;
51907;SDS011;39320;53.214;6.556;2023-09-07T02:33:28;2.47;;;1.92;;
51907;SDS011;39320;53.214;6.556;2023-09-07T02:35:54;2.63;;;1.73;;
51907;SDS011;39320;53.214;6.556;2023-09-07T02:38:20;2.38;;;1.75;;
51907;SDS011;39320;53.214;6.556;2023-09-07T02:40:45;2.60;;;1.30;;
51907;SDS011;39320;53.214;6.556;2023-09-07T02:43:11;2.38;;;1.60;;
51907;SDS011;39320;53.214;6.556;2023-09-07T02:45:38;3.13;;;1.80;;
51907;SDS011;39320;53.214;6.556;2023-09-07T02:48:04;3.53;;;1.75;;
51907;SDS011;39320;53.214;6.556;2023-09-07T02:50:32;1.67;;;1.48;;
51907;SDS011;39320;53.214;6.556;2023-09-07T02:52:59;1.90;;;1.63;;
51907;SDS011;39320;53.214;6.556;2023-09-07T02:55:25;2.25;;;1.70;;
51907;SDS011;39320;53.214;6.556;2023-09-07T02:57:52;3.88;;;2.13;;
51907;SDS011;39320;53.214;6.556;2023-09-07T03:00:17;3.15;;;2.13;;
51907;SDS011;39320;53.214;6.556;2023-09-07T03:02:43;2.88;;;2.00;;
51907;SDS011;39320;53.214;6.556;2023-09-07T03:05:09;3.38;;;2.00;;
51907;SDS011;39320;53.214;6.556;2023-09-07T03:07:35;2.67;;;2.15;;
51907;SDS011;39320;53.214;6.556;2023-09-07T03:10:01;2.42;;;1.85;;
51907;SDS011;39320;53.214;6.556;2023-09-07T03:12:27;2.63;;;1.83;;
51907;SDS011;39320;53.214;6.556;2023-09-07T03:14:53;4.50;;;2.08;;
51907;SDS011;39320;53.214;6.556;2023-09-07T03:17:19;3.40;;;1.92;;
51907;SDS011;39320;53.214;6.556;2023-09-07T03:19:47;4.10;;;2.13;;
51907;SDS011;39320;53.214;6.556;2023-09-07T03:22:13;3.95;;;2.05;;
51907;SDS011;39320;53.214;6.556;2023-09-07T03:24:39;3.33;;;1.85;;
51907;SDS011;39320;53.214;6.556;2023-09-07T03:27:05;3.13;;;2.05;;
51907;SDS011;39320;53.214;6.556;2023-09-07T03:29:31;4.75;;;2.20;;
51907;SDS011;39320;53.214;6.556;2023-09-07T03:31:59;2.50;;;1.95;;
51907;SDS011;39320;53.214;6.556;2023-09-07T03:34:25;5.18;;;2.22;;
51907;SDS011;39320;53.214;6.556;2023-09-07T03:36:51;2.20;;;1.88;;
51907;SDS011;39320;53.214;6.556;2023-09-07T03:39:17;4.63;;;2.65;;
51907;SDS011;39320;53.214;6.556;2023-09-07T03:41:48;2.33;;;1.88;;
51907;SDS011;39320;53.214;6.556;2023-09-07T03:44:14;2.58;;;2.03;;
51907;SDS011;39320;53.214;6.556;2023-09-07T03:46:41;2.70;;;1.75;;
51907;SDS011;39320;53.214;6.556;2023-09-07T03:49:07;2.70;;;2.25;;
51907;SDS011;39320;53.214;6.556;2023-09-07T03:51:32;2.95;;;2.28;;
51907;SDS011;39320;53.214;6.556;2023-09-07T03:53:58;4.32;;;2.67;;
51907;SDS011;39320;53.214;6.556;2023-09-07T03:56:24;2.50;;;2.25;;
51907;SDS011;39320;53.214;6.556;2023-09-07T03:58:51;2.97;;;2.45;;
51907;SDS011;39320;53.214;6.556;2023-09-07T04:01:16;2.88;;;2.40;;
51907;SDS011;39320;53.214;6.556;2023-09-07T04:03:42;3.10;;;2.58;;
51907;SDS011;39320;53.214;6.556;2023-09-07T04:06:08;2.90;;;2.25;;
51907;SDS011;39320;53.214;6.556;2023-09-07T04:08:34;4.22;;;2.20;;
51907;SDS011;39320;53.214;6.556;2023-09-07T04:11:04;2.35;;;2.05;;
51907;SDS011;39320;53.214;6.556;2023-09-07T04:13:30;2.83;;;2.63;;
51907;SDS011;39320;53.214;6.556;2023-09-07T04:15:56;2.50;;;2.30;;
51907;SDS011;39320;53.214;6.556;2023-09-07T04:18:23;3.03;;;2.20;;
51907;SDS011;39320;53.214;6.556;2023-09-07T04:20:49;2.45;;;2.20;;
51907;SDS011;39320;53.214;6.556;2023-09-07T04:23:15;2.58;;;2.38;;
51907;SDS011;39320;53.214;6.556;2023-09-07T04:25:41;3.55;;;2.45;;
51907;SDS011;39320;53.214;6.556;2023-09-07T04:28:07;3.00;;;2.20;;
51907;SDS011;39320;53.214;6.556;2023-09-07T04:30:36;3.85;;;2.58;;
51907;SDS011;39320;53.214;6.556;2023-09-07T04:33:03;2.67;;;1.90;;
51907;SDS011;39320;53.214;6.556;2023-09-07T04:35:29;3.75;;;2.25;;
51907;SDS011;39320;53.214;6.556;2023-09-07T04:37:55;2.95;;;2.65;;
51907;SDS011;39320;53.214;6.556;2023-09-07T04:40:22;2.92;;;2.13;;
51907;SDS011;39320;53.214;6.556;2023-09-07T04:42:48;2.95;;;2.45;;
51907;SDS011;39320;53.214;6.556;2023-09-07T04:45:14;3.20;;;2.33;;
51907;SDS011;39320;53.214;6.556;2023-09-07T04:47:39;3.67;;;2.33;;
51907;SDS011;39320;53.214;6.556;2023-09-07T04:50:05;4.72;;;2.50;;
51907;SDS011;39320;53.214;6.556;2023-09-07T04:52:32;4.78;;;2.40;;
51907;SDS011;39320;53.214;6.556;2023-09-07T04:54:59;2.17;;;1.85;;
51907;SDS011;39320;53.214;6.556;2023-09-07T04:57:25;2.53;;;2.10;;
51907;SDS011;39320;53.214;6.556;2023-09-07T04:59:51;2.72;;;2.42;;
51907;SDS011;39320;53.214;6.556;2023-09-07T05:02:17;3.50;;;2.60;;
51907;SDS011;39320;53.214;6.556;2023-09-07T05:04:44;3.17;;;2.40;;
51907;SDS011;39320;53.214;6.556;2023-09-07T05:07:10;4.45;;;2.05;;
51907;SDS011;39320;53.214;6.556;2023-09-07T05:09:36;2.40;;;1.85;;
51907;SDS011;39320;53.214;6.556;2023-09-07T05:12:01;2.33;;;2.13;;
51907;SDS011;39320;53.214;6.556;2023-09-07T05:14:27;2.40;;;2.20;;
51907;SDS011;39320;53.214;6.556;2023-09-07T05:16:54;3.53;;;2.38;;
51907;SDS011;39320;53.214;6.556;2023-09-07T05:19:21;2.97;;;2.47;;
51907;SDS011;39320;53.214;6.556;2023-09-07T05:21:47;2.25;;;2.00;;
51907;SDS011;39320;53.214;6.556;2023-09-07T05:24:14;3.05;;;2.08;;
51907;SDS011;39320;53.214;6.556;2023-09-07T05:26:43;3.33;;;2.50;;
51907;SDS011;39320;53.214;6.556;2023-09-07T05:29:09;2.58;;;2.25;;
51907;SDS011;39320;53.214;6.556;2023-09-07T05:34:31;3.20;;;2.70;;
51907;SDS011;39320;53.214;6.556;2023-09-07T05:36:57;3.63;;;2.65;;
51907;SDS011;39320;53.214;6.556;2023-09-07T05:39:23;4.90;;;2.22;;
51907;SDS011;39320;53.214;6.556;2023-09-07T05:41:49;3.20;;;2.70;;
51907;SDS011;39320;53.214;6.556;2023-09-07T05:44:15;2.95;;;2.30;;
51907;SDS011;39320;53.214;6.556;2023-09-07T05:46:40;3.40;;;2.78;;
51907;SDS011;39320;53.214;6.556;2023-09-07T05:49:06;5.47;;;2.55;;
51907;SDS011;39320;53.214;6.556;2023-09-07T05:51:32;4.00;;;2.50;;
51907;SDS011;39320;53.214;6.556;2023-09-07T05:53:57;3.20;;;2.55;;
51907;SDS011;39320;53.214;6.556;2023-09-07T05:56:23;3.85;;;2.70;;
51907;SDS011;39320;53.214;6.556;2023-09-07T05:58:49;4.70;;;2.90;;
51907;SDS011;39320;53.214;6.556;2023-09-07T06:01:15;4.55;;;2.60;;
51907;SDS011;39320;53.214;6.556;2023-09-07T06:03:41;4.32;;;2.90;;
51907;SDS011;39320;53.214;6.556;2023-09-07T06:06:06;4.43;;;2.67;;
51907;SDS011;39320;53.214;6.556;2023-09-07T06:08:32;4.38;;;2.65;;
51907;SDS011;39320;53.214;6.556;2023-09-07T06:10:58;3.20;;;2.85;;
51907;SDS011;39320;53.214;6.556;2023-09-07T06:13:25;4.40;;;2.88;;
51907;SDS011;39320;53.214;6.556;2023-09-07T06:15:50;3.85;;;2.47;;
51907;SDS011;39320;53.214;6.556;2023-09-07T06:18:17;3.35;;;2.70;;
51907;SDS011;39320;53.214;6.556;2023-09-07T06:20:42;3.28;;;2.60;;
51907;SDS011;39320;53.214;6.556;2023-09-07T06:23:08;3.30;;;2.97;;
51907;SDS011;39320;53.214;6.556;2023-09-07T06:25:34;5.30;;;2.88;;
51907;SDS011;39320;53.214;6.556;2023-09-07T06:27:59;3.05;;;2.72;;
51907;SDS011;39320;53.214;6.556;2023-09-07T06:30:25;4.63;;;2.67;;
51907;SDS011;39320;53.214;6.556;2023-09-07T06:32:51;5.10;;;2.92;;
51907;SDS011;39320;53.214;6.556;2023-09-07T06:35:18;4.50;;;3.03;;
51907;SDS011;39320;53.214;6.556;2023-09-07T06:37:43;6.10;;;2.97;;
51907;SDS011;39320;53.214;6.556;2023-09-07T06:40:09;4.07;;;2.83;;
51907;SDS011;39320;53.214;6.556;2023-09-07T06:42:36;3.38;;;2.70;;
51907;SDS011;39320;53.214;6.556;2023-09-07T06:45:02;4.25;;;2.90;;
51907;SDS011;39320;53.214;6.556;2023-09-07T06:47:28;4.47;;;2.38;;
51907;SDS011;39320;53.214;6.556;2023-09-07T06:49:54;4.32;;;2.63;;
51907;SDS011;39320;53.214;6.556;2023-09-07T06:52:20;3.42;;;2.55;;
51907;SDS011;39320;53.214;6.556;2023-09-07T06:54:46;3.65;;;2.65;;
51907;SDS011;39320;53.214;6.556;2023-09-07T06:57:11;3.55;;;2.63;;
51907;SDS011;39320;53.214;6.556;2023-09-07T06:59:37;5.97;;;3.38;;
51907;SDS011;39320;53.214;6.556;2023-09-07T07:02:03;3.00;;;2.60;;
51907;SDS011;39320;53.214;6.556;2023-09-07T07:04:30;5.75;;;3.13;;
51907;SDS011;39320;53.214;6.556;2023-09-07T07:06:55;3.40;;;2.75;;
51907;SDS011;39320;53.214;6.556;2023-09-07T07:09:21;5.85;;;2.75;;
51907;SDS011;39320;53.214;6.556;2023-09-07T07:11:47;3.22;;;2.40;;
51907;SDS011;39320;53.214;6.556;2023-09-07T07:14:13;3.47;;;2.72;;
51907;SDS011;39320;53.214;6.556;2023-09-07T07:16:39;4.97;;;2.28;;
51907;SDS011;39320;53.214;6.556;2023-09-07T07:19:05;3.70;;;2.35;;
51907;SDS011;39320;53.214;6.556;2023-09-07T07:21:30;3.17;;;2.22;;
51907;SDS011;39320;53.214;6.556;2023-09-07T07:23:56;3.47;;;2.20;;
51907;SDS011;39320;53.214;6.556;2023-09-07T07:26:22;4.18;;;2.70;;
51907;SDS011;39320;53.214;6.556;2023-09-07T07:28:48;3.38;;;2.10;;
51907;SDS011;39320;53.214;6.556;2023-09-07T07:31:13;3.58;;;2.05;;
51907;SDS011;39320;53.214;6.556;2023-09-07T07:33:39;2.35;;;2.03;;
51907;SDS011;39320;53.214;6.556;2023-09-07T07:36:05;3.25;;;2.50;;
51907;SDS011;39320;53.214;6.556;2023-09-07T07:38:31;3.47;;;2.17;;
51907;SDS011;39320;53.214;6.556;2023-09-07T07:40:57;4.20;;;2.45;;
51907;SDS011;39320;53.214;6.556;2023-09-07T07:43:22;2.60;;;2.10;;
51907;SDS011;39320;53.214;6.556;2023-09-07T07:45:48;2.47;;;2.13;;
51907;SDS011;39320;53.214;6.556;2023-09-07T07:48:14;3.53;;;2.35;;
51907;SDS011;39320;53.214;6.556;2023-09-07T07:50:40;3.15;;;2.20;;
51907;SDS011;39320;53.214;6.556;2023-09-07T07:53:06;2.10;;;1.90;;
51907;SDS011;39320;53.214;6.556;2023-09-07T07:55:36;2.53;;;2.00;;
51907;SDS011;39320;53.214;6.556;2023-09-07T07:58:07;3.20;;;2.15;;
51907;SDS011;39320;53.214;6.556;2023-09-07T08:00:34;3.35;;;1.80;;
51907;SDS011;39320;53.214;6.556;2023-09-07T08:03:00;2.85;;;2.30;;
51907;SDS011;39320;53.214;6.556;2023-09-07T08:05:33;3.83;;;1.95;;
51907;SDS011;39320;53.214;6.556;2023-09-07T08:07:59;2.35;;;2.13;;
51907;SDS011;39320;53.214;6.556;2023-09-07T08:10:25;3.47;;;2.33;;
51907;SDS011;39320;53.214;6.556;2023-09-07T08:12:54;3.28;;;2.28;;
51907;SDS011;39320;53.214;6.556;2023-09-07T08:15:21;2.85;;;2.00;;
51907;SDS011;39320;53.214;6.556;2023-09-07T08:17:49;2.97;;;2.05;;
51907;SDS011;39320;53.214;6.556;2023-09-07T08:20:16;2.42;;;1.73;;
51907;SDS011;39320;53.214;6.556;2023-09-07T08:22:42;3.22;;;2.60;;
51907;SDS011;39320;53.214;6.556;2023-09-07T08:25:10;2.30;;;2.10;;
51907;SDS011;39320;53.214;6.556;2023-09-07T08:27:38;2.70;;;1.80;;
51907;SDS011;39320;53.214;6.556;2023-09-07T08:30:12;2.95;;;2.08;;
51907;SDS011;39320;53.214;6.556;2023-09-07T08:32:41;2.75;;;2.00;;
51907;SDS011;39320;53.214;6.556;2023-09-07T08:35:08;2.33;;;1.90;;
51907;SDS011;39320;53.214;6.556;2023-09-07T08:37:37;4.13;;;2.40;;
51907;SDS011;39320;53.214;6.556;2023-09-07T08:40:04;2.22;;;1.85;;
51907;SDS011;39320;53.214;6.556;2023-09-07T08:42:32;4.32;;;1.98;;
51907;SDS011;39320;53.214;6.556;2023-09-07T08:44:59;3.95;;;2.22;;
51907;SDS011;39320;53.214;6.556;2023-09-07T08:47:28;6.72;;;2.33;;
51907;SDS011;39320;53.214;6.556;2023-09-07T08:49:56;2.20;;;2.00;;
51907;SDS011;39320;53.214;6.556;2023-09-07T08:52:23;3.78;;;2.85;;
51907;SDS011;39320;53.214;6.556;2023-09-07T08:54:52;6.18;;;2.33;;
51907;SDS011;39320;53.214;6.556;2023-09-07T08:57:19;5.35;;;2.35;;
51907;SDS011;39320;53.214;6.556;2023-09-07T08:59:47;4.22;;;2.60;;
51907;SDS011;39320;53.214;6.556;2023-09-07T09:02:14;3.80;;;2.80;;
51907;SDS011;39320;53.214;6.556;2023-09-07T09:04:41;4.38;;;2.35;;
51907;SDS011;39320;53.214;6.556;2023-09-07T09:07:07;3.60;;;2.10;;
51907;SDS011;39320;53.214;6.556;2023-09-07T09:09:34;4.10;;;2.33;;
51907;SDS011;39320;53.214;6.556;2023-09-07T09:12:06;2.75;;;2.05;;
51907;SDS011;39320;53.214;6.556;2023-09-07T09:17:00;3.88;;;1.85;;
51907;SDS011;39320;53.214;6.556;2023-09-07T09:19:30;4.18;;;2.10;;
51907;SDS011;39320;53.214;6.556;2023-09-07T09:21:59;2.00;;;1.67;;
51907;SDS011;39320;53.214;6.556;2023-09-07T09:24:26;2.50;;;1.95;;
51907;SDS011;39320;53.214;6.556;2023-09-07T09:26:52;3.58;;;1.75;;
51907;SDS011;39320;53.214;6.556;2023-09-07T09:29:22;2.20;;;1.75;;
51907;SDS011;39320;53.214;6.556;2023-09-07T09:31:48;6.15;;;2.17;;
51907;SDS011;39320;53.214;6.556;2023-09-07T09:34:14;2.78;;;1.98;;
51907;SDS011;39320;53.214;6.556;2023-09-07T09:36:42;2.40;;;2.05;;
51907;SDS011;39320;53.214;6.556;2023-09-07T09:39:08;3.00;;;1.98;;
51907;SDS011;39320;53.214;6.556;2023-09-07T09:41:34;2.65;;;2.05;;
51907;SDS011;39320;53.214;6.556;2023-09-07T09:44:02;2.28;;;1.80;;
51907;SDS011;39320;53.214;6.556;2023-09-07T09:46:29;2.38;;;1.88;;
51907;SDS011;39320;53.214;6.556;2023-09-07T09:48:57;2.25;;;1.73;;
51907;SDS011;39320;53.214;6.556;2023-09-07T09:51:23;2.17;;;1.90;;
51907;SDS011;39320;53.214;6.556;2023-09-07T09:53:50;2.47;;;1.63;;
51907;SDS011;39320;53.214;6.556;2023-09-07T09:56:16;2.97;;;1.63;;
51907;SDS011;39320;53.214;6.556;2023-09-07T09:58:42;3.90;;;2.28;;
51907;SDS011;39320;53.214;6.556;2023-09-07T10:01:08;2.60;;;2.10;;
51907;SDS011;39320;53.214;6.556;2023-09-07T10:03:40;2.03;;;1.63;;
51907;SDS011;39320;53.214;6.556;2023-09-07T10:06:11;3.65;;;2.15;;
51907;SDS011;39320;53.214;6.556;2023-09-07T10:11:42;3.45;;;1.85;;
51907;SDS011;39320;53.214;6.556;2023-09-07T10:14:08;3.13;;;2.17;;
51907;SDS011;39320;53.214;6.556;2023-09-07T10:16:41;3.47;;;1.73;;
51907;SDS011;39320;53.214;6.556;2023-09-07T10:19:18;3.60;;;1.80;;
51907;SDS011;39320;53.214;6.556;2023-09-07T10:21:45;3.38;;;2.00;;
51907;SDS011;39320;53.214;6.556;2023-09-07T10:24:11;2.53;;;1.88;;
51907;SDS011;39320;53.214;6.556;2023-09-07T10:27:09;2.97;;;1.90;;
51907;SDS011;39320;53.214;6.556;2023-09-07T10:29:46;3.90;;;1.95;;
51907;SDS011;39320;53.214;6.556;2023-09-07T10:32:19;2.83;;;2.13;;
51907;SDS011;39320;53.214;6.556;2023-09-07T10:34:44;2.67;;;2.08;;
51907;SDS011;39320;53.214;6.556;2023-09-07T10:37:11;2.50;;;1.90;;
51907;SDS011;39320;53.214;6.556;2023-09-07T10:39:38;2.67;;;1.80;;
51907;SDS011;39320;53.214;6.556;2023-09-07T10:42:05;3.60;;;1.73;;
51907;SDS011;39320;53.214;6.556;2023-09-07T10:44:30;3.70;;;1.88;;
51907;SDS011;39320;53.214;6.556;2023-09-07T10:46:56;3.42;;;1.80;;
51907;SDS011;39320;53.214;6.556;2023-09-07T10:49:23;2.45;;;1.73;;
51907;SDS011;39320;53.214;6.556;2023-09-07T10:51:49;2.70;;;1.90;;
51907;SDS011;39320;53.214;6.556;2023-09-07T10:54:16;2.53;;;1.88;;
51907;SDS011;39320;53.214;6.556;2023-09-07T10:56:51;3.22;;;1.77;;
51907;SDS011;39320;53.214;6.556;2023-09-07T10:59:17;4.32;;;2.20;;
51907;SDS011;39320;53.214;6.556;2023-09-07T11:01:48;1.80;;;1.50;;
51907;SDS011;39320;53.214;6.556;2023-09-07T11:04:15;2.53;;;1.73;;
51907;SDS011;39320;53.214;6.556;2023-09-07T11:06:42;2.90;;;1.77;;
51907;SDS011;39320;53.214;6.556;2023-09-07T11:09:08;2.03;;;1.70;;
51907;SDS011;39320;53.214;6.556;2023-09-07T11:11:35;2.25;;;1.70;;
51907;SDS011;39320;53.214;6.556;2023-09-07T11:14:05;2.53;;;1.67;;
51907;SDS011;39320;53.214;6.556;2023-09-07T11:16:32;2.15;;;1.63;;
51907;SDS011;39320;53.214;6.556;2023-09-07T11:19:03;2.20;;;1.77;;
51907;SDS011;39320;53.214;6.556;2023-09-07T11:21:30;1.75;;;1.58;;
51907;SDS011;39320;53.214;6.556;2023-09-07T11:23:57;2.30;;;2.10;;
51907;SDS011;39320;53.214;6.556;2023-09-07T11:26:23;3.13;;;1.95;;
51907;SDS011;39320;53.214;6.556;2023-09-07T11:28:49;3.60;;;1.70;;
51907;SDS011;39320;53.214;6.556;2023-09-07T11:31:18;2.95;;;1.80;;
51907;SDS011;39320;53.214;6.556;2023-09-07T11:33:47;2.00;;;1.52;;
51907;SDS011;39320;53.214;6.556;2023-09-07T11:36:14;2.17;;;1.70;;
51907;SDS011;39320;53.214;6.556;2023-09-07T11:38:42;2.40;;;1.65;;
51907;SDS011;39320;53.214;6.556;2023-09-07T11:41:10;3.47;;;1.65;;
51907;SDS011;39320;53.214;6.556;2023-09-07T11:43:35;3.47;;;1.70;;
51907;SDS011;39320;53.214;6.556;2023-09-07T11:46:02;2.95;;;1.88;;
51907;SDS011;39320;53.214;6.556;2023-09-07T11:48:28;2.83;;;1.95;;
51907;SDS011;39320;53.214;6.556;2023-09-07T11:50:55;2.58;;;1.80;;
51907;SDS011;39320;53.214;6.556;2023-09-07T11:53:20;2.97;;;1.88;;
51907;SDS011;39320;53.214;6.556;2023-09-07T11:55:46;2.30;;;1.80;;
51907;SDS011;39320;53.214;6.556;2023-09-07T11:58:12;2.70;;;1.92;;
51907;SDS011;39320;53.214;6.556;2023-09-07T12:00:40;2.55;;;1.40;;
51907;SDS011;39320;53.214;6.556;2023-09-07T12:03:07;2.53;;;1.50;;
51907;SDS011;39320;53.214;6.556;2023-09-07T12:05:33;4.00;;;1.98;;
51907;SDS011;39320;53.214;6.556;2023-09-07T12:07:58;2.33;;;1.42;;
51907;SDS011;39320;53.214;6.556;2023-09-07T12:10:25;3.17;;;1.92;;
51907;SDS011;39320;53.214;6.556;2023-09-07T12:12:50;4.88;;;2.03;;
51907;SDS011;39320;53.214;6.556;2023-09-07T12:15:16;3.63;;;1.92;;
51907;SDS011;39320;53.214;6.556;2023-09-07T12:17:42;3.03;;;1.50;;
51907;SDS011;39320;53.214;6.556;2023-09-07T12:20:08;2.97;;;1.60;;
51907;SDS011;39320;53.214;6.556;2023-09-07T12:22:36;2.00;;;1.60;;
51907;SDS011;39320;53.214;6.556;2023-09-07T12:25:05;2.97;;;1.50;;
51907;SDS011;39320;53.214;6.556;2023-09-07T12:27:32;2.20;;;1.65;;
51907;SDS011;39320;53.214;6.556;2023-09-07T12:29:59;3.83;;;2.03;;
51907;SDS011;39320;53.214;6.556;2023-09-07T12:32:25;2.75;;;2.20;;
51907;SDS011;39320;53.214;6.556;2023-09-07T12:34:51;4.03;;;1.85;;
51907;SDS011;39320;53.214;6.556;2023-09-07T12:37:19;2.90;;;1.52;;
51907;SDS011;39320;53.214;6.556;2023-09-07T12:39:48;1.70;;;1.50;;
51907;SDS011;39320;53.214;6.556;2023-09-07T12:42:17;2.25;;;1.50;;
51907;SDS011;39320;53.214;6.556;2023-09-07T12:44:43;1.95;;;1.60;;
51907;SDS011;39320;53.214;6.556;2023-09-07T12:47:09;2.28;;;1.63;;
51907;SDS011;39320;53.214;6.556;2023-09-07T12:49:35;4.90;;;1.92;;
51907;SDS011;39320;53.214;6.556;2023-09-07T12:52:01;2.42;;;1.70;;
51907;SDS011;39320;53.214;6.556;2023-09-07T12:54:33;3.92;;;1.88;;
51907;SDS011;39320;53.214;6.556;2023-09-07T12:57:00;2.88;;;1.63;;
51907;SDS011;39320;53.214;6.556;2023-09-07T12:59:26;3.10;;;1.83;;
51907;SDS011;39320;53.214;6.556;2023-09-07T13:01:53;2.05;;;1.85;;
51907;SDS011;39320;53.214;6.556;2023-09-07T13:04:21;3.75;;;1.90;;
51907;SDS011;39320;53.214;6.556;2023-09-07T13:06:47;2.63;;;2.00;;
51907;SDS011;39320;53.214;6.556;2023-09-07T13:09:12;2.35;;;1.60;;
51907;SDS011;39320;53.214;6.556;2023-09-07T13:11:38;2.63;;;1.75;;
51907;SDS011;39320;53.214;6.556;2023-09-07T13:14:07;2.28;;;1.45;;
51907;SDS011;39320;53.214;6.556;2023-09-07T13:16:33;2.50;;;1.70;;
51907;SDS011;39320;53.214;6.556;2023-09-07T13:18:59;2.65;;;1.58;;
51907;SDS011;39320;53.214;6.556;2023-09-07T13:21:25;2.75;;;1.80;;
51907;SDS011;39320;53.214;6.556;2023-09-07T13:23:50;2.03;;;1.70;;
51907;SDS011;39320;53.214;6.556;2023-09-07T13:26:16;4.60;;;2.20;;
51907;SDS011;39320;53.214;6.556;2023-09-07T13:28:42;2.45;;;1.23;;
51907;SDS011;39320;53.214;6.556;2023-09-07T13:31:08;3.67;;;1.95;;
51907;SDS011;39320;53.214;6.556;2023-09-07T13:33:33;3.28;;;1.80;;
51907;SDS011;39320;53.214;6.556;2023-09-07T13:35:59;2.22;;;1.90;;
51907;SDS011;39320;53.214;6.556;2023-09-07T13:38:25;2.45;;;1.58;;
51907;SDS011;39320;53.214;6.556;2023-09-07T13:40:52;2.53;;;1.60;;
51907;SDS011;39320;53.214;6.556;2023-09-07T13:43:17;2.13;;;1.63;;
51907;SDS011;39320;53.214;6.556;2023-09-07T13:45:43;2.85;;;1.63;;
51907;SDS011;39320;53.214;6.556;2023-09-07T13:48:09;1.92;;;1.58;;
51907;SDS011;39320;53.214;6.556;2023-09-07T13:50:35;3.58;;;1.80;;
51907;SDS011;39320;53.214;6.556;2023-09-07T13:53:00;3.95;;;1.60;;
51907;SDS011;39320;53.214;6.556;2023-09-07T13:55:26;1.95;;;1.52;;
51907;SDS011;39320;53.214;6.556;2023-09-07T13:57:53;1.98;;;1.52;;
51907;SDS011;39320;53.214;6.556;2023-09-07T14:00:19;1.73;;;1.45;;
51907;SDS011;39320;53.214;6.556;2023-09-07T14:02:44;2.17;;;1.60;;
51907;SDS011;39320;53.214;6.556;2023-09-07T14:05:10;5.13;;;1.60;;
51907;SDS011;39320;53.214;6.556;2023-09-07T14:07:36;2.55;;;1.65;;
51907;SDS011;39320;53.214;6.556;2023-09-07T14:10:01;3.00;;;1.60;;
51907;SDS011;39320;53.214;6.556;2023-09-07T14:12:28;1.98;;;1.27;;
51907;SDS011;39320;53.214;6.556;2023-09-07T14:14:53;2.28;;;1.50;;
51907;SDS011;39320;53.214;6.556;2023-09-07T14:17:19;2.42;;;1.40;;
51907;SDS011;39320;53.214;6.556;2023-09-07T14:19:45;3.00;;;1.73;;
51907;SDS011;39320;53.214;6.556;2023-09-07T14:22:11;3.63;;;1.63;;
51907;SDS011;39320;53.214;6.556;2023-09-07T14:24:37;1.48;;;1.20;;
51907;SDS011;39320;53.214;6.556;2023-09-07T14:27:03;3.03;;;1.73;;
51907;SDS011;39320;53.214;6.556;2023-09-07T14:29:29;1.48;;;1.17;;
51907;SDS011;39320;53.214;6.556;2023-09-07T14:31:55;2.33;;;1.30;;
51907;SDS011;39320;53.214;6.556;2023-09-07T14:34:21;3.58;;;1.88;;
51907;SDS011;39320;53.214;6.556;2023-09-07T14:36:47;2.03;;;1.45;;
51907;SDS011;39320;53.214;6.556;2023-09-07T14:39:13;2.70;;;1.50;;
51907;SDS011;39320;53.214;6.556;2023-09-07T14:41:39;1.60;;;1.27;;
51907;SDS011;39320;53.214;6.556;2023-09-07T14:44:05;1.45;;;1.10;;
51907;SDS011;39320;53.214;6.556;2023-09-07T14:46:31;2.50;;;1.40;;
51907;SDS011;39320;53.214;6.556;2023-09-07T14:48:57;3.13;;;1.42;;
51907;SDS011;39320;53.214;6.556;2023-09-07T14:51:23;2.70;;;1.33;;
51907;SDS011;39320;53.214;6.556;2023-09-07T14:53:49;3.25;;;1.70;;